Alice Springs, Australia
Current Conditions -  °F | °C
As of 11:30 PM on Friday 28 Nov 2014 (Local Time) from YBAS Reporting Station
Clear Clear  
Wind Chill: 75°   Ceiling: Unl
Heat Index: 75°   Visibility: 6mi
Dew Point: 39°   Wind: 2mph
Humidity: 27%   Direction: 350°N
Pressure: 29.85"   Gusts: NA
Location:  23.7°S, 133.88°E
Report Text: YBAS 281430Z AUTO 35002KT 9999 // NCD 24/04 Q1011
Loading
Personal Weather Stations






























Interactive Weather Map New forecast layout! Learn more

10-Day Weather Forecast

Advertisements
Track Severe Weather on mobile